YXIW weather

Inglewood Hospital Helipad
Inglewood, Queensland, Australia

Public forecast

Using degrees Celsius for public forecast. Weather courtesy of forecast.io.

METAR (pilot weather report)

Closest report is Oakey Airport, 70.2 nm (130.1 km) NNE. Retrieved 2019/05/25 04:00 UTC (40 minutes ago):

YBOK 250400Z AUTO 15010KT 9999 // SCT066 BKN081 22/06 Q1019

TAF (pilot weather forecast)

Forecast is more than 12 hours old.

Closest forecast is RAAF Base Amberley, 99.2 nm (183.6 km) ENE. Retrieved 2019/05/24 00:00 UTC (1 day ago):

TAF YAMB 242315Z 2500/2518 VRB05KT 9999 FEW025 FM250500 07005KT CAVOK FM251100 VRB03KT CAVOK PROB30 2515/2518 0600 FG